sensor_id;sensor_type;location;lat;lon;timestamp;P1;durP1;ratioP1;P2;durP2;ratioP2
27889;SDS011;15238;49.082;9.102;2024-01-07T00:00:04;19.13;;;12.30;;
27889;SDS011;15238;49.082;9.102;2024-01-07T00:02:05;20.65;;;11.88;;
27889;SDS011;15238;49.082;9.102;2024-01-07T00:04:06;24.58;;;13.00;;
27889;SDS011;15238;49.082;9.102;2024-01-07T00:06:06;19.23;;;12.95;;
27889;SDS011;15238;49.082;9.102;2024-01-07T00:08:07;18.70;;;13.13;;
27889;SDS011;15238;49.082;9.102;2024-01-07T00:10:07;22.05;;;13.30;;
27889;SDS011;15238;49.082;9.102;2024-01-07T00:12:09;22.30;;;13.20;;
27889;SDS011;15238;49.082;9.102;2024-01-07T00:14:10;22.85;;;14.15;;
27889;SDS011;15238;49.082;9.102;2024-01-07T00:16:10;21.02;;;13.80;;
27889;SDS011;15238;49.082;9.102;2024-01-07T00:18:11;22.38;;;13.55;;
27889;SDS011;15238;49.082;9.102;2024-01-07T00:20:11;23.60;;;14.60;;
27889;SDS011;15238;49.082;9.102;2024-01-07T00:22:12;21.35;;;13.82;;
27889;SDS011;15238;49.082;9.102;2024-01-07T00:24:12;20.55;;;12.95;;
27889;SDS011;15238;49.082;9.102;2024-01-07T00:26:13;21.70;;;13.10;;
27889;SDS011;15238;49.082;9.102;2024-01-07T00:28:14;21.90;;;13.80;;
27889;SDS011;15238;49.082;9.102;2024-01-07T00:30:14;21.52;;;12.80;;
27889;SDS011;15238;49.082;9.102;2024-01-07T00:32:15;18.83;;;12.82;;
27889;SDS011;15238;49.082;9.102;2024-01-07T00:34:15;19.42;;;11.88;;
27889;SDS011;15238;49.082;9.102;2024-01-07T00:36:16;19.15;;;12.43;;
27889;SDS011;15238;49.082;9.102;2024-01-07T00:38:16;18.48;;;12.15;;
27889;SDS011;15238;49.082;9.102;2024-01-07T00:40:17;19.42;;;11.73;;
27889;SDS011;15238;49.082;9.102;2024-01-07T00:42:17;18.52;;;12.10;;
27889;SDS011;15238;49.082;9.102;2024-01-07T00:44:18;18.50;;;11.55;;
27889;SDS011;15238;49.082;9.102;2024-01-07T00:46:22;20.58;;;11.60;;
27889;SDS011;15238;49.082;9.102;2024-01-07T00:48:22;19.55;;;11.18;;
27889;SDS011;15238;49.082;9.102;2024-01-07T00:50:23;17.65;;;11.10;;
27889;SDS011;15238;49.082;9.102;2024-01-07T00:52:24;19.08;;;11.30;;
27889;SDS011;15238;49.082;9.102;2024-01-07T00:54:24;16.42;;;10.18;;
27889;SDS011;15238;49.082;9.102;2024-01-07T00:56:28;17.65;;;10.60;;
27889;SDS011;15238;49.082;9.102;2024-01-07T00:58:28;16.98;;;10.23;;
27889;SDS011;15238;49.082;9.102;2024-01-07T01:00:29;16.23;;;9.70;;
27889;SDS011;15238;49.082;9.102;2024-01-07T01:02:29;15.52;;;9.60;;
27889;SDS011;15238;49.082;9.102;2024-01-07T01:04:30;17.75;;;10.30;;
27889;SDS011;15238;49.082;9.102;2024-01-07T01:06:30;15.55;;;10.05;;
27889;SDS011;15238;49.082;9.102;2024-01-07T01:08:31;14.07;;;9.68;;
27889;SDS011;15238;49.082;9.102;2024-01-07T01:10:31;16.48;;;9.45;;
27889;SDS011;15238;49.082;9.102;2024-01-07T01:12:32;14.07;;;9.65;;
27889;SDS011;15238;49.082;9.102;2024-01-07T01:14:32;14.60;;;9.85;;
27889;SDS011;15238;49.082;9.102;2024-01-07T01:16:33;13.20;;;8.57;;
27889;SDS011;15238;49.082;9.102;2024-01-07T01:18:33;13.93;;;9.55;;
27889;SDS011;15238;49.082;9.102;2024-01-07T01:20:34;15.60;;;9.57;;
27889;SDS011;15238;49.082;9.102;2024-01-07T01:22:34;17.42;;;9.75;;
27889;SDS011;15238;49.082;9.102;2024-01-07T01:24:34;15.23;;;9.93;;
27889;SDS011;15238;49.082;9.102;2024-01-07T01:26:35;13.82;;;9.00;;
27889;SDS011;15238;49.082;9.102;2024-01-07T01:28:35;15.70;;;9.18;;
27889;SDS011;15238;49.082;9.102;2024-01-07T01:30:39;15.48;;;9.38;;
27889;SDS011;15238;49.082;9.102;2024-01-07T01:32:41;17.80;;;9.35;;
27889;SDS011;15238;49.082;9.102;2024-01-07T01:34:42;15.85;;;8.93;;
27889;SDS011;15238;49.082;9.102;2024-01-07T01:36:42;16.20;;;8.73;;
27889;SDS011;15238;49.082;9.102;2024-01-07T01:38:43;15.50;;;9.23;;
27889;SDS011;15238;49.082;9.102;2024-01-07T01:40:43;12.48;;;8.30;;
27889;SDS011;15238;49.082;9.102;2024-01-07T01:42:43;18.55;;;10.18;;
27889;SDS011;15238;49.082;9.102;2024-01-07T01:44:45;15.82;;;9.40;;
27889;SDS011;15238;49.082;9.102;2024-01-07T01:46:46;16.23;;;9.15;;
27889;SDS011;15238;49.082;9.102;2024-01-07T01:48:47;15.18;;;8.95;;
27889;SDS011;15238;49.082;9.102;2024-01-07T01:50:48;15.55;;;9.25;;
27889;SDS011;15238;49.082;9.102;2024-01-07T01:52:49;19.48;;;10.02;;
27889;SDS011;15238;49.082;9.102;2024-01-07T01:54:51;15.70;;;9.23;;
27889;SDS011;15238;49.082;9.102;2024-01-07T01:56:51;15.93;;;9.35;;
27889;SDS011;15238;49.082;9.102;2024-01-07T01:58:52;16.13;;;9.57;;
27889;SDS011;15238;49.082;9.102;2024-01-07T02:00:53;15.70;;;10.05;;
27889;SDS011;15238;49.082;9.102;2024-01-07T02:02:53;19.48;;;10.15;;
27889;SDS011;15238;49.082;9.102;2024-01-07T02:04:54;15.05;;;9.65;;
27889;SDS011;15238;49.082;9.102;2024-01-07T02:06:54;17.80;;;9.65;;
27889;SDS011;15238;49.082;9.102;2024-01-07T02:08:55;16.58;;;9.77;;
27889;SDS011;15238;49.082;9.102;2024-01-07T02:10:55;19.33;;;10.52;;
27889;SDS011;15238;49.082;9.102;2024-01-07T02:12:57;14.55;;;9.50;;
27889;SDS011;15238;49.082;9.102;2024-01-07T02:14:57;18.08;;;10.55;;
27889;SDS011;15238;49.082;9.102;2024-01-07T02:16:58;18.27;;;10.45;;
27889;SDS011;15238;49.082;9.102;2024-01-07T02:18:59;17.15;;;10.07;;
27889;SDS011;15238;49.082;9.102;2024-01-07T02:20:59;17.75;;;10.02;;
27889;SDS011;15238;49.082;9.102;2024-01-07T02:23:00;18.20;;;11.15;;
27889;SDS011;15238;49.082;9.102;2024-01-07T02:25:00;17.25;;;10.10;;
27889;SDS011;15238;49.082;9.102;2024-01-07T02:27:01;16.60;;;10.02;;
27889;SDS011;15238;49.082;9.102;2024-01-07T02:29:02;17.70;;;10.32;;
27889;SDS011;15238;49.082;9.102;2024-01-07T02:31:03;18.30;;;11.35;;
27889;SDS011;15238;49.082;9.102;2024-01-07T02:33:03;17.35;;;9.50;;
27889;SDS011;15238;49.082;9.102;2024-01-07T02:35:04;19.30;;;11.38;;
27889;SDS011;15238;49.082;9.102;2024-01-07T02:37:05;18.65;;;11.57;;
27889;SDS011;15238;49.082;9.102;2024-01-07T02:39:05;23.08;;;11.27;;
27889;SDS011;15238;49.082;9.102;2024-01-07T02:41:06;21.38;;;12.02;;
27889;SDS011;15238;49.082;9.102;2024-01-07T02:43:06;18.38;;;10.98;;
27889;SDS011;15238;49.082;9.102;2024-01-07T02:45:07;17.35;;;10.45;;
27889;SDS011;15238;49.082;9.102;2024-01-07T02:47:08;18.30;;;10.48;;
27889;SDS011;15238;49.082;9.102;2024-01-07T02:49:12;19.58;;;10.82;;
27889;SDS011;15238;49.082;9.102;2024-01-07T02:51:13;18.80;;;10.77;;
27889;SDS011;15238;49.082;9.102;2024-01-07T02:53:13;17.75;;;10.18;;
27889;SDS011;15238;49.082;9.102;2024-01-07T02:55:14;18.90;;;10.52;;
27889;SDS011;15238;49.082;9.102;2024-01-07T02:57:15;15.38;;;9.85;;
27889;SDS011;15238;49.082;9.102;2024-01-07T02:59:15;17.70;;;10.13;;
27889;SDS011;15238;49.082;9.102;2024-01-07T03:01:16;15.13;;;9.77;;
27889;SDS011;15238;49.082;9.102;2024-01-07T03:03:16;20.35;;;10.95;;
27889;SDS011;15238;49.082;9.102;2024-01-07T03:05:17;18.25;;;10.82;;
27889;SDS011;15238;49.082;9.102;2024-01-07T03:07:18;17.77;;;10.60;;
27889;SDS011;15238;49.082;9.102;2024-01-07T03:09:18;15.85;;;9.40;;
27889;SDS011;15238;49.082;9.102;2024-01-07T03:11:19;18.60;;;10.68;;
27889;SDS011;15238;49.082;9.102;2024-01-07T03:13:19;17.05;;;10.00;;
27889;SDS011;15238;49.082;9.102;2024-01-07T03:15:20;14.40;;;9.32;;
27889;SDS011;15238;49.082;9.102;2024-01-07T03:17:20;17.67;;;9.95;;
27889;SDS011;15238;49.082;9.102;2024-01-07T03:19:22;18.00;;;9.82;;
27889;SDS011;15238;49.082;9.102;2024-01-07T03:21:23;16.48;;;9.70;;
27889;SDS011;15238;49.082;9.102;2024-01-07T03:23:23;16.45;;;9.60;;
27889;SDS011;15238;49.082;9.102;2024-01-07T03:25:24;16.83;;;10.27;;
27889;SDS011;15238;49.082;9.102;2024-01-07T03:27:24;18.70;;;10.32;;
27889;SDS011;15238;49.082;9.102;2024-01-07T03:29:25;16.48;;;9.57;;
27889;SDS011;15238;49.082;9.102;2024-01-07T03:31:26;17.05;;;9.23;;
27889;SDS011;15238;49.082;9.102;2024-01-07T03:33:26;17.15;;;10.52;;
27889;SDS011;15238;49.082;9.102;2024-01-07T03:35:27;15.32;;;8.82;;
27889;SDS011;15238;49.082;9.102;2024-01-07T03:37:27;17.17;;;9.75;;
27889;SDS011;15238;49.082;9.102;2024-01-07T03:39:28;17.17;;;10.20;;
27889;SDS011;15238;49.082;9.102;2024-01-07T03:41:28;14.40;;;8.88;;
27889;SDS011;15238;49.082;9.102;2024-01-07T03:43:29;14.95;;;9.18;;
27889;SDS011;15238;49.082;9.102;2024-01-07T03:45:29;13.98;;;9.30;;
27889;SDS011;15238;49.082;9.102;2024-01-07T03:47:31;15.43;;;9.32;;
27889;SDS011;15238;49.082;9.102;2024-01-07T03:49:32;16.20;;;9.55;;
27889;SDS011;15238;49.082;9.102;2024-01-07T03:51:32;15.52;;;9.63;;
27889;SDS011;15238;49.082;9.102;2024-01-07T03:53:33;18.85;;;10.20;;
27889;SDS011;15238;49.082;9.102;2024-01-07T03:55:33;19.85;;;10.43;;
27889;SDS011;15238;49.082;9.102;2024-01-07T03:57:34;17.48;;;10.10;;
27889;SDS011;15238;49.082;9.102;2024-01-07T03:59:34;16.90;;;9.57;;
27889;SDS011;15238;49.082;9.102;2024-01-07T04:01:35;14.85;;;9.55;;
27889;SDS011;15238;49.082;9.102;2024-01-07T04:03:35;17.27;;;9.10;;
27889;SDS011;15238;49.082;9.102;2024-01-07T04:05:38;16.35;;;9.65;;
27889;SDS011;15238;49.082;9.102;2024-01-07T04:07:38;16.33;;;9.30;;
27889;SDS011;15238;49.082;9.102;2024-01-07T04:09:39;17.70;;;10.07;;
27889;SDS011;15238;49.082;9.102;2024-01-07T04:11:42;18.00;;;9.95;;
27889;SDS011;15238;49.082;9.102;2024-01-07T04:13:43;14.65;;;8.82;;
27889;SDS011;15238;49.082;9.102;2024-01-07T04:15:43;13.93;;;8.50;;
27889;SDS011;15238;49.082;9.102;2024-01-07T04:17:44;14.50;;;8.10;;
27889;SDS011;15238;49.082;9.102;2024-01-07T04:19:44;15.20;;;8.15;;
27889;SDS011;15238;49.082;9.102;2024-01-07T04:21:45;14.95;;;9.15;;
27889;SDS011;15238;49.082;9.102;2024-01-07T04:23:46;15.35;;;8.63;;
27889;SDS011;15238;49.082;9.102;2024-01-07T04:25:47;15.00;;;8.60;;
27889;SDS011;15238;49.082;9.102;2024-01-07T04:27:47;14.40;;;8.55;;
27889;SDS011;15238;49.082;9.102;2024-01-07T04:29:48;13.90;;;8.38;;
27889;SDS011;15238;49.082;9.102;2024-01-07T04:31:48;16.10;;;8.98;;
27889;SDS011;15238;49.082;9.102;2024-01-07T04:33:49;14.00;;;8.48;;
27889;SDS011;15238;49.082;9.102;2024-01-07T04:35:49;17.52;;;9.15;;
27889;SDS011;15238;49.082;9.102;2024-01-07T04:37:50;12.90;;;8.13;;
27889;SDS011;15238;49.082;9.102;2024-01-07T04:39:50;14.15;;;8.45;;
27889;SDS011;15238;49.082;9.102;2024-01-07T04:41:50;13.20;;;8.25;;
27889;SDS011;15238;49.082;9.102;2024-01-07T04:43:51;17.35;;;8.25;;
27889;SDS011;15238;49.082;9.102;2024-01-07T04:45:52;14.90;;;8.32;;
27889;SDS011;15238;49.082;9.102;2024-01-07T04:47:52;15.13;;;8.73;;
27889;SDS011;15238;49.082;9.102;2024-01-07T04:49:53;15.20;;;7.82;;
27889;SDS011;15238;49.082;9.102;2024-01-07T04:51:54;13.45;;;8.30;;
27889;SDS011;15238;49.082;9.102;2024-01-07T04:53:55;12.55;;;8.05;;
27889;SDS011;15238;49.082;9.102;2024-01-07T04:55:55;11.55;;;7.22;;
27889;SDS011;15238;49.082;9.102;2024-01-07T04:57:56;13.57;;;8.52;;
27889;SDS011;15238;49.082;9.102;2024-01-07T04:59:56;13.80;;;7.60;;
27889;SDS011;15238;49.082;9.102;2024-01-07T05:01:57;15.80;;;7.97;;
27889;SDS011;15238;49.082;9.102;2024-01-07T05:03:57;13.60;;;7.97;;
27889;SDS011;15238;49.082;9.102;2024-01-07T05:05:58;12.32;;;7.22;;
27889;SDS011;15238;49.082;9.102;2024-01-07T05:07:58;15.68;;;7.60;;
27889;SDS011;15238;49.082;9.102;2024-01-07T05:10:00;12.00;;;7.25;;
27889;SDS011;15238;49.082;9.102;2024-01-07T05:12:01;11.35;;;7.35;;
27889;SDS011;15238;49.082;9.102;2024-01-07T05:14:01;12.90;;;7.38;;
27889;SDS011;15238;49.082;9.102;2024-01-07T05:16:02;11.57;;;7.03;;
27889;SDS011;15238;49.082;9.102;2024-01-07T05:18:03;13.60;;;8.27;;
27889;SDS011;15238;49.082;9.102;2024-01-07T05:20:08;13.95;;;7.88;;
27889;SDS011;15238;49.082;9.102;2024-01-07T05:22:09;12.73;;;7.45;;
27889;SDS011;15238;49.082;9.102;2024-01-07T05:24:09;9.43;;;6.72;;
27889;SDS011;15238;49.082;9.102;2024-01-07T05:26:10;13.02;;;7.55;;
27889;SDS011;15238;49.082;9.102;2024-01-07T05:28:11;11.30;;;6.93;;
27889;SDS011;15238;49.082;9.102;2024-01-07T05:30:12;11.30;;;6.75;;
27889;SDS011;15238;49.082;9.102;2024-01-07T05:32:13;12.40;;;7.57;;
27889;SDS011;15238;49.082;9.102;2024-01-07T05:34:13;9.23;;;6.47;;
27889;SDS011;15238;49.082;9.102;2024-01-07T05:36:14;13.30;;;6.80;;
27889;SDS011;15238;49.082;9.102;2024-01-07T05:38:14;12.98;;;7.60;;
27889;SDS011;15238;49.082;9.102;2024-01-07T05:40:15;10.82;;;6.75;;
27889;SDS011;15238;49.082;9.102;2024-01-07T05:42:15;11.73;;;6.65;;
27889;SDS011;15238;49.082;9.102;2024-01-07T05:44:16;12.38;;;7.25;;
27889;SDS011;15238;49.082;9.102;2024-01-07T05:46:16;9.63;;;6.32;;
27889;SDS011;15238;49.082;9.102;2024-01-07T05:48:17;11.68;;;6.95;;
27889;SDS011;15238;49.082;9.102;2024-01-07T05:50:18;10.18;;;7.00;;
27889;SDS011;15238;49.082;9.102;2024-01-07T05:52:20;10.95;;;7.05;;
27889;SDS011;15238;49.082;9.102;2024-01-07T05:54:21;11.48;;;7.13;;
27889;SDS011;15238;49.082;9.102;2024-01-07T05:56:22;14.85;;;7.50;;
27889;SDS011;15238;49.082;9.102;2024-01-07T05:58:23;14.02;;;8.20;;
27889;SDS011;15238;49.082;9.102;2024-01-07T06:00:23;11.77;;;7.20;;
27889;SDS011;15238;49.082;9.102;2024-01-07T06:02:24;11.15;;;6.97;;
27889;SDS011;15238;49.082;9.102;2024-01-07T06:04:25;10.30;;;7.13;;
27889;SDS011;15238;49.082;9.102;2024-01-07T06:06:25;13.30;;;7.30;;
27889;SDS011;15238;49.082;9.102;2024-01-07T06:08:26;11.27;;;7.22;;
27889;SDS011;15238;49.082;9.102;2024-01-07T06:10:26;9.30;;;6.30;;
27889;SDS011;15238;49.082;9.102;2024-01-07T06:12:27;11.55;;;7.95;;
27889;SDS011;15238;49.082;9.102;2024-01-07T06:14:27;12.05;;;7.40;;
27889;SDS011;15238;49.082;9.102;2024-01-07T06:16:28;10.38;;;6.75;;
27889;SDS011;15238;49.082;9.102;2024-01-07T06:18:28;9.98;;;6.45;;
27889;SDS011;15238;49.082;9.102;2024-01-07T06:20:29;11.38;;;6.70;;
27889;SDS011;15238;49.082;9.102;2024-01-07T06:22:29;12.63;;;7.28;;
27889;SDS011;15238;49.082;9.102;2024-01-07T06:24:30;11.40;;;7.57;;
27889;SDS011;15238;49.082;9.102;2024-01-07T06:26:30;10.07;;;6.93;;
27889;SDS011;15238;49.082;9.102;2024-01-07T06:28:32;9.90;;;7.30;;
27889;SDS011;15238;49.082;9.102;2024-01-07T06:30:33;11.05;;;6.93;;
27889;SDS011;15238;49.082;9.102;2024-01-07T06:32:33;12.30;;;7.53;;
27889;SDS011;15238;49.082;9.102;2024-01-07T06:34:35;9.45;;;5.93;;
27889;SDS011;15238;49.082;9.102;2024-01-07T06:36:36;10.55;;;6.55;;
27889;SDS011;15238;49.082;9.102;2024-01-07T06:38:36;9.40;;;6.55;;
27889;SDS011;15238;49.082;9.102;2024-01-07T06:40:37;11.32;;;7.38;;
27889;SDS011;15238;49.082;9.102;2024-01-07T06:42:37;12.15;;;6.90;;
27889;SDS011;15238;49.082;9.102;2024-01-07T06:44:38;8.25;;;5.55;;
27889;SDS011;15238;49.082;9.102;2024-01-07T06:46:38;9.52;;;6.50;;
27889;SDS011;15238;49.082;9.102;2024-01-07T06:48:39;17.73;;;7.55;;
27889;SDS011;15238;49.082;9.102;2024-01-07T06:50:40;10.15;;;5.53;;
27889;SDS011;15238;49.082;9.102;2024-01-07T06:52:40;7.95;;;5.13;;
27889;SDS011;15238;49.082;9.102;2024-01-07T06:54:41;9.45;;;6.22;;
27889;SDS011;15238;49.082;9.102;2024-01-07T06:56:41;12.68;;;6.93;;
27889;SDS011;15238;49.082;9.102;2024-01-07T06:58:43;9.52;;;5.90;;
27889;SDS011;15238;49.082;9.102;2024-01-07T07:00:43;11.35;;;6.00;;
27889;SDS011;15238;49.082;9.102;2024-01-07T07:02:44;7.82;;;5.35;;
27889;SDS011;15238;49.082;9.102;2024-01-07T07:04:44;11.02;;;6.05;;
27889;SDS011;15238;49.082;9.102;2024-01-07T07:06:45;11.07;;;6.22;;
27889;SDS011;15238;49.082;9.102;2024-01-07T07:08:46;8.60;;;5.53;;
27889;SDS011;15238;49.082;9.102;2024-01-07T07:10:46;9.90;;;6.35;;
27889;SDS011;15238;49.082;9.102;2024-01-07T07:12:47;8.40;;;5.65;;
27889;SDS011;15238;49.082;9.102;2024-01-07T07:14:47;8.63;;;5.78;;
27889;SDS011;15238;49.082;9.102;2024-01-07T07:16:48;10.32;;;6.65;;
27889;SDS011;15238;49.082;9.102;2024-01-07T07:18:48;9.63;;;6.32;;
27889;SDS011;15238;49.082;9.102;2024-01-07T07:20:49;10.68;;;7.18;;
27889;SDS011;15238;49.082;9.102;2024-01-07T07:22:49;11.55;;;7.03;;
27889;SDS011;15238;49.082;9.102;2024-01-07T07:24:50;11.43;;;7.00;;
27889;SDS011;15238;49.082;9.102;2024-01-07T07:26:51;11.00;;;7.40;;
27889;SDS011;15238;49.082;9.102;2024-01-07T07:28:51;11.88;;;7.07;;
27889;SDS011;15238;49.082;9.102;2024-01-07T07:30:52;9.70;;;6.65;;
27889;SDS011;15238;49.082;9.102;2024-01-07T07:32:53;11.55;;;6.50;;
27889;SDS011;15238;49.082;9.102;2024-01-07T07:34:53;9.73;;;6.90;;
27889;SDS011;15238;49.082;9.102;2024-01-07T07:36:54;11.25;;;7.38;;
27889;SDS011;15238;49.082;9.102;2024-01-07T07:38:55;9.80;;;6.43;;
27889;SDS011;15238;49.082;9.102;2024-01-07T07:40:56;10.68;;;5.88;;
27889;SDS011;15238;49.082;9.102;2024-01-07T07:42:56;11.25;;;6.75;;
27889;SDS011;15238;49.082;9.102;2024-01-07T07:44:57;11.00;;;6.53;;
27889;SDS011;15238;49.082;9.102;2024-01-07T07:46:57;8.80;;;6.28;;
27889;SDS011;15238;49.082;9.102;2024-01-07T07:48:58;11.57;;;6.20;;
27889;SDS011;15238;49.082;9.102;2024-01-07T07:50:58;10.65;;;6.55;;
27889;SDS011;15238;49.082;9.102;2024-01-07T07:52:59;9.38;;;6.45;;
27889;SDS011;15238;49.082;9.102;2024-01-07T07:54:59;8.95;;;6.25;;
27889;SDS011;15238;49.082;9.102;2024-01-07T07:57:00;10.15;;;6.63;;
27889;SDS011;15238;49.082;9.102;2024-01-07T07:59:01;8.52;;;6.47;;
27889;SDS011;15238;49.082;9.102;2024-01-07T08:01:03;12.10;;;6.93;;
27889;SDS011;15238;49.082;9.102;2024-01-07T08:03:04;11.15;;;6.05;;
27889;SDS011;15238;49.082;9.102;2024-01-07T08:05:06;9.70;;;6.28;;
27889;SDS011;15238;49.082;9.102;2024-01-07T08:07:08;10.77;;;6.68;;
27889;SDS011;15238;49.082;9.102;2024-01-07T08:09:08;12.20;;;6.60;;
27889;SDS011;15238;49.082;9.102;2024-01-07T08:11:10;10.77;;;6.05;;
27889;SDS011;15238;49.082;9.102;2024-01-07T08:13:10;11.75;;;7.20;;
27889;SDS011;15238;49.082;9.102;2024-01-07T08:15:11;9.77;;;6.10;;
27889;SDS011;15238;49.082;9.102;2024-01-07T08:17:13;10.10;;;6.40;;
27889;SDS011;15238;49.082;9.102;2024-01-07T08:19:13;10.20;;;5.95;;
27889;SDS011;15238;49.082;9.102;2024-01-07T08:21:14;9.63;;;6.22;;
27889;SDS011;15238;49.082;9.102;2024-01-07T08:23:14;14.80;;;6.10;;
27889;SDS011;15238;49.082;9.102;2024-01-07T08:25:15;12.27;;;6.60;;
27889;SDS011;15238;49.082;9.102;2024-01-07T08:27:16;10.38;;;6.28;;
27889;SDS011;15238;49.082;9.102;2024-01-07T08:29:17;10.70;;;6.60;;
27889;SDS011;15238;49.082;9.102;2024-01-07T08:31:17;9.60;;;6.05;;
27889;SDS011;15238;49.082;9.102;2024-01-07T08:33:18;12.40;;;6.03;;
27889;SDS011;15238;49.082;9.102;2024-01-07T08:35:18;8.30;;;5.50;;
27889;SDS011;15238;49.082;9.102;2024-01-07T08:37:19;8.57;;;5.55;;
27889;SDS011;15238;49.082;9.102;2024-01-07T08:39:19;8.23;;;5.63;;
27889;SDS011;15238;49.082;9.102;2024-01-07T08:41:20;7.93;;;5.78;;
27889;SDS011;15238;49.082;9.102;2024-01-07T08:43:21;10.57;;;6.38;;
27889;SDS011;15238;49.082;9.102;2024-01-07T08:45:21;10.50;;;6.25;;
27889;SDS011;15238;49.082;9.102;2024-01-07T08:47:22;10.02;;;6.00;;
27889;SDS011;15238;49.082;9.102;2024-01-07T08:49:22;9.40;;;5.90;;
27889;SDS011;15238;49.082;9.102;2024-01-07T08:51:23;8.25;;;5.03;;
27889;SDS011;15238;49.082;9.102;2024-01-07T08:53:24;6.38;;;4.35;;
27889;SDS011;15238;49.082;9.102;2024-01-07T08:55:24;7.88;;;5.03;;
27889;SDS011;15238;49.082;9.102;2024-01-07T08:57:25;6.75;;;4.15;;
27889;SDS011;15238;49.082;9.102;2024-01-07T08:59:25;8.02;;;5.13;;
27889;SDS011;15238;49.082;9.102;2024-01-07T09:01:26;7.50;;;5.10;;
27889;SDS011;15238;49.082;9.102;2024-01-07T09:03:26;7.43;;;4.50;;
27889;SDS011;15238;49.082;9.102;2024-01-07T09:05:27;7.65;;;4.32;;
27889;SDS011;15238;49.082;9.102;2024-01-07T09:07:27;8.35;;;4.53;;
27889;SDS011;15238;49.082;9.102;2024-01-07T09:09:28;10.35;;;4.95;;
27889;SDS011;15238;49.082;9.102;2024-01-07T09:11:28;8.80;;;4.70;;
27889;SDS011;15238;49.082;9.102;2024-01-07T09:13:29;7.53;;;4.47;;
27889;SDS011;15238;49.082;9.102;2024-01-07T09:15:29;8.27;;;4.32;;
27889;SDS011;15238;49.082;9.102;2024-01-07T09:17:31;7.00;;;4.18;;
27889;SDS011;15238;49.082;9.102;2024-01-07T09:19:31;6.43;;;3.50;;
27889;SDS011;15238;49.082;9.102;2024-01-07T09:21:32;5.05;;;3.05;;
27889;SDS011;15238;49.082;9.102;2024-01-07T09:23:33;4.68;;;3.08;;
27889;SDS011;15238;49.082;9.102;2024-01-07T09:25:36;4.22;;;2.95;;
27889;SDS011;15238;49.082;9.102;2024-01-07T09:27:36;4.25;;;2.65;;
27889;SDS011;15238;49.082;9.102;2024-01-07T09:29:37;4.35;;;2.97;;
27889;SDS011;15238;49.082;9.102;2024-01-07T09:31:38;6.97;;;2.97;;
27889;SDS011;15238;49.082;9.102;2024-01-07T09:33:38;5.13;;;3.45;;
27889;SDS011;15238;49.082;9.102;2024-01-07T09:35:39;3.95;;;2.60;;
27889;SDS011;15238;49.082;9.102;2024-01-07T09:37:39;3.53;;;2.53;;
27889;SDS011;15238;49.082;9.102;2024-01-07T09:39:40;3.97;;;2.20;;
27889;SDS011;15238;49.082;9.102;2024-01-07T09:41:41;3.72;;;2.53;;
27889;SDS011;15238;49.082;9.102;2024-01-07T09:43:41;4.68;;;3.03;;
27889;SDS011;15238;49.082;9.102;2024-01-07T09:45:44;3.78;;;2.78;;
27889;SDS011;15238;49.082;9.102;2024-01-07T09:47:47;4.45;;;2.90;;
27889;SDS011;15238;49.082;9.102;2024-01-07T09:49:47;4.30;;;2.90;;
27889;SDS011;15238;49.082;9.102;2024-01-07T09:51:48;4.75;;;3.08;;
27889;SDS011;15238;49.082;9.102;2024-01-07T09:53:53;6.53;;;3.35;;
27889;SDS011;15238;49.082;9.102;2024-01-07T09:56:19;4.53;;;3.05;;
27889;SDS011;15238;49.082;9.102;2024-01-07T09:58:22;4.30;;;2.95;;
27889;SDS011;15238;49.082;9.102;2024-01-07T10:00:24;3.83;;;2.47;;
27889;SDS011;15238;49.082;9.102;2024-01-07T10:02:27;4.13;;;2.50;;
27889;SDS011;15238;49.082;9.102;2024-01-07T10:04:28;4.07;;;2.67;;
27889;SDS011;15238;49.082;9.102;2024-01-07T10:06:30;4.30;;;3.03;;
27889;SDS011;15238;49.082;9.102;2024-01-07T10:08:32;5.13;;;3.42;;
27889;SDS011;15238;49.082;9.102;2024-01-07T10:10:33;3.33;;;2.70;;
27889;SDS011;15238;49.082;9.102;2024-01-07T10:12:35;3.35;;;2.63;;
27889;SDS011;15238;49.082;9.102;2024-01-07T10:14:35;4.18;;;3.13;;
27889;SDS011;15238;49.082;9.102;2024-01-07T10:16:36;4.60;;;3.15;;
27889;SDS011;15238;49.082;9.102;2024-01-07T10:18:37;4.80;;;3.28;;
27889;SDS011;15238;49.082;9.102;2024-01-07T10:20:40;6.38;;;3.15;;
27889;SDS011;15238;49.082;9.102;2024-01-07T10:22:41;3.97;;;3.00;;
27889;SDS011;15238;49.082;9.102;2024-01-07T10:24:51;5.03;;;3.05;;
27889;SDS011;15238;49.082;9.102;2024-01-07T10:26:51;4.88;;;3.35;;
27889;SDS011;15238;49.082;9.102;2024-01-07T10:28:52;5.43;;;3.17;;
27889;SDS011;15238;49.082;9.102;2024-01-07T10:30:53;3.90;;;2.90;;
27889;SDS011;15238;49.082;9.102;2024-01-07T10:32:59;5.88;;;3.42;;
27889;SDS011;15238;49.082;9.102;2024-01-07T10:35:03;3.00;;;2.60;;
27889;SDS011;15238;49.082;9.102;2024-01-07T10:37:05;4.40;;;3.05;;
27889;SDS011;15238;49.082;9.102;2024-01-07T10:39:05;4.10;;;2.88;;
27889;SDS011;15238;49.082;9.102;2024-01-07T10:41:06;5.07;;;3.25;;
27889;SDS011;15238;49.082;9.102;2024-01-07T10:43:09;4.68;;;3.08;;
27889;SDS011;15238;49.082;9.102;2024-01-07T10:45:09;4.65;;;3.15;;
27889;SDS011;15238;49.082;9.102;2024-01-07T10:47:10;5.13;;;3.58;;
27889;SDS011;15238;49.082;9.102;2024-01-07T10:49:19;4.72;;;3.47;;
27889;SDS011;15238;49.082;9.102;2024-01-07T10:53:24;8.90;;;4.10;;
27889;SDS011;15238;49.082;9.102;2024-01-07T10:55:35;5.18;;;3.75;;
27889;SDS011;15238;49.082;9.102;2024-01-07T10:59:47;4.65;;;3.22;;
27889;SDS011;15238;49.082;9.102;2024-01-07T11:01:49;4.05;;;3.10;;
27889;SDS011;15238;49.082;9.102;2024-01-07T11:04:08;5.63;;;3.38;;
27889;SDS011;15238;49.082;9.102;2024-01-07T11:06:27;5.10;;;3.03;;
27889;SDS011;15238;49.082;9.102;2024-01-07T11:08:41;6.63;;;4.53;;
27889;SDS011;15238;49.082;9.102;2024-01-07T11:11:06;5.82;;;4.10;;
27889;SDS011;15238;49.082;9.102;2024-01-07T11:17:49;4.93;;;3.50;;
27889;SDS011;15238;49.082;9.102;2024-01-07T11:19:50;4.75;;;3.15;;
27889;SDS011;15238;49.082;9.102;2024-01-07T11:21:51;5.10;;;3.10;;
27889;SDS011;15238;49.082;9.102;2024-01-07T11:23:52;5.45;;;3.40;;
27889;SDS011;15238;49.082;9.102;2024-01-07T11:25:57;5.25;;;2.97;;
27889;SDS011;15238;49.082;9.102;2024-01-07T11:27:58;6.03;;;3.50;;
27889;SDS011;15238;49.082;9.102;2024-01-07T11:30:18;5.28;;;3.65;;
27889;SDS011;15238;49.082;9.102;2024-01-07T11:32:21;5.28;;;3.70;;
27889;SDS011;15238;49.082;9.102;2024-01-07T11:36:43;5.68;;;3.42;;
27889;SDS011;15238;49.082;9.102;2024-01-07T11:40:48;6.20;;;3.83;;
27889;SDS011;15238;49.082;9.102;2024-01-07T11:42:49;5.65;;;3.92;;
27889;SDS011;15238;49.082;9.102;2024-01-07T11:44:52;7.30;;;4.00;;
27889;SDS011;15238;49.082;9.102;2024-01-07T11:46:54;4.63;;;3.42;;
27889;SDS011;15238;49.082;9.102;2024-01-07T11:48:56;5.43;;;3.78;;
27889;SDS011;15238;49.082;9.102;2024-01-07T11:51:01;5.78;;;3.95;;
27889;SDS011;15238;49.082;9.102;2024-01-07T11:53:02;7.10;;;4.38;;
27889;SDS011;15238;49.082;9.102;2024-01-07T11:55:03;5.97;;;3.80;;
27889;SDS011;15238;49.082;9.102;2024-01-07T11:57:05;7.03;;;3.80;;
27889;SDS011;15238;49.082;9.102;2024-01-07T11:59:06;5.97;;;3.88;;
27889;SDS011;15238;49.082;9.102;2024-01-07T12:01:07;6.95;;;4.85;;
27889;SDS011;15238;49.082;9.102;2024-01-07T12:03:08;5.28;;;3.78;;
27889;SDS011;15238;49.082;9.102;2024-01-07T12:05:08;6.47;;;4.03;;
27889;SDS011;15238;49.082;9.102;2024-01-07T12:07:09;7.10;;;4.90;;
27889;SDS011;15238;49.082;9.102;2024-01-07T12:09:12;6.60;;;4.60;;
27889;SDS011;15238;49.082;9.102;2024-01-07T12:11:14;6.40;;;4.20;;
27889;SDS011;15238;49.082;9.102;2024-01-07T12:13:14;5.70;;;4.20;;